Burlington, Massachusetts
Current Conditions -  °F | °C
As of 10:29 PM on Wednesday 22 Oct 2014 (Local Time) from KBED Reporting Station
Light Rain Light Rain  
Wind Chill: 41°   Ceiling: 1000
Heat Index: 49°   Visibility: 4mi
Dew Point: 48°   Wind: 25mph
Humidity: 97%   Direction: 30°NNE
Pressure: 29.81"   Gusts: 44mph
Location:  42.51°N, 71.19°W
Report Text: KBED 230229Z 03022G38KT 4SM -RA BR BKN010 OVC016 09/09 A2981 RMK AO2 PK WND 01038/0227 CIG 007V012 P0003 T00940089
Loading
Personal Weather Stations






























Interactive Weather Map
Tropical Storm Tracking
New forecast layout! Learn more

10-Day Weather Forecast

Advertisements
Track Severe Weather on mobile